sensor_id;sensor_type;location;lat;lon;timestamp;P1;durP1;ratioP1;P2;durP2;ratioP2
40541;SDS011;49288;52.194;5.676;2022-08-19T00:01:12;9.20;;;6.07;;
40541;SDS011;49288;52.194;5.676;2022-08-19T00:06:28;8.32;;;5.65;;
40541;SDS011;49288;52.194;5.676;2022-08-19T00:11:31;10.13;;;6.55;;
40541;SDS011;49288;52.194;5.676;2022-08-19T00:16:33;8.43;;;5.90;;
40541;SDS011;49288;52.194;5.676;2022-08-19T00:21:36;11.57;;;6.80;;
40541;SDS011;49288;52.194;5.676;2022-08-19T00:26:43;10.60;;;6.07;;
40541;SDS011;49288;52.194;5.676;2022-08-19T00:31:47;9.55;;;6.75;;
40541;SDS011;49288;52.194;5.676;2022-08-19T00:41:54;11.43;;;6.50;;
40541;SDS011;49288;52.194;5.676;2022-08-19T00:46:58;11.15;;;6.50;;
40541;SDS011;49288;52.194;5.676;2022-08-19T00:52:04;10.00;;;6.63;;
40541;SDS011;49288;52.194;5.676;2022-08-19T00:57:12;9.90;;;6.88;;
40541;SDS011;49288;52.194;5.676;2022-08-19T01:02:18;9.07;;;5.97;;
40541;SDS011;49288;52.194;5.676;2022-08-19T01:07:21;9.13;;;6.38;;
40541;SDS011;49288;52.194;5.676;2022-08-19T01:12:24;10.95;;;7.50;;
40541;SDS011;49288;52.194;5.676;2022-08-19T01:17:27;10.18;;;6.57;;
40541;SDS011;49288;52.194;5.676;2022-08-19T01:22:30;9.13;;;6.80;;
40541;SDS011;49288;52.194;5.676;2022-08-19T01:27:39;9.93;;;6.28;;
40541;SDS011;49288;52.194;5.676;2022-08-19T01:32:46;9.07;;;6.47;;
40541;SDS011;49288;52.194;5.676;2022-08-19T01:37:53;10.18;;;6.63;;
40541;SDS011;49288;52.194;5.676;2022-08-19T01:43:02;8.63;;;6.33;;
40541;SDS011;49288;52.194;5.676;2022-08-19T01:48:06;9.15;;;6.63;;
40541;SDS011;49288;52.194;5.676;2022-08-19T01:53:09;10.98;;;7.00;;
40541;SDS011;49288;52.194;5.676;2022-08-19T01:58:17;10.48;;;6.82;;
40541;SDS011;49288;52.194;5.676;2022-08-19T02:03:23;9.40;;;6.70;;
40541;SDS011;49288;52.194;5.676;2022-08-19T02:08:26;10.65;;;7.80;;
40541;SDS011;49288;52.194;5.676;2022-08-19T02:13:29;10.57;;;7.57;;
40541;SDS011;49288;52.194;5.676;2022-08-19T02:18:32;12.05;;;8.02;;
40541;SDS011;49288;52.194;5.676;2022-08-19T02:23:35;12.02;;;7.80;;
40541;SDS011;49288;52.194;5.676;2022-08-19T02:28:39;16.38;;;9.85;;
40541;SDS011;49288;52.194;5.676;2022-08-19T02:33:44;9.27;;;6.95;;
40541;SDS011;49288;52.194;5.676;2022-08-19T02:38:47;11.30;;;7.60;;
40541;SDS011;49288;52.194;5.676;2022-08-19T02:43:56;12.75;;;7.72;;
40541;SDS011;49288;52.194;5.676;2022-08-19T02:49:19;11.88;;;7.85;;
40541;SDS011;49288;52.194;5.676;2022-08-19T02:54:22;12.02;;;7.03;;
40541;SDS011;49288;52.194;5.676;2022-08-19T02:59:25;9.00;;;6.43;;
40541;SDS011;49288;52.194;5.676;2022-08-19T03:04:28;12.27;;;7.95;;
40541;SDS011;49288;52.194;5.676;2022-08-19T03:09:31;10.45;;;6.90;;
40541;SDS011;49288;52.194;5.676;2022-08-19T03:14:34;12.57;;;7.45;;
40541;SDS011;49288;52.194;5.676;2022-08-19T03:19:37;10.75;;;7.00;;
40541;SDS011;49288;52.194;5.676;2022-08-19T03:24:40;10.90;;;6.85;;
40541;SDS011;49288;52.194;5.676;2022-08-19T03:29:43;13.15;;;8.82;;
40541;SDS011;49288;52.194;5.676;2022-08-19T03:34:46;14.52;;;8.95;;
40541;SDS011;49288;52.194;5.676;2022-08-19T03:39:48;13.10;;;8.98;;
40541;SDS011;49288;52.194;5.676;2022-08-19T03:44:51;12.82;;;8.02;;
40541;SDS011;49288;52.194;5.676;2022-08-19T03:49:54;13.88;;;8.32;;
40541;SDS011;49288;52.194;5.676;2022-08-19T03:54:57;10.13;;;6.47;;
40541;SDS011;49288;52.194;5.676;2022-08-19T04:00:00;9.85;;;6.72;;
40541;SDS011;49288;52.194;5.676;2022-08-19T04:05:14;17.98;;;8.73;;
40541;SDS011;49288;52.194;5.676;2022-08-19T04:10:17;12.95;;;9.35;;
40541;SDS011;49288;52.194;5.676;2022-08-19T04:15:19;14.23;;;7.60;;
40541;SDS011;49288;52.194;5.676;2022-08-19T04:20:22;11.88;;;7.53;;
40541;SDS011;49288;52.194;5.676;2022-08-19T04:25:25;13.77;;;7.60;;
40541;SDS011;49288;52.194;5.676;2022-08-19T04:30:27;15.70;;;9.52;;
40541;SDS011;49288;52.194;5.676;2022-08-19T04:35:38;13.27;;;8.68;;
40541;SDS011;49288;52.194;5.676;2022-08-19T04:40:44;15.60;;;9.48;;
40541;SDS011;49288;52.194;5.676;2022-08-19T04:46:11;11.30;;;7.53;;
40541;SDS011;49288;52.194;5.676;2022-08-19T04:51:34;13.80;;;8.68;;
40541;SDS011;49288;52.194;5.676;2022-08-19T04:56:38;15.57;;;9.68;;
40541;SDS011;49288;52.194;5.676;2022-08-19T05:01:42;11.38;;;8.00;;
40541;SDS011;49288;52.194;5.676;2022-08-19T05:06:46;16.02;;;9.73;;
40541;SDS011;49288;52.194;5.676;2022-08-19T05:11:50;18.75;;;9.73;;
40541;SDS011;49288;52.194;5.676;2022-08-19T05:16:55;19.25;;;10.18;;
40541;SDS011;49288;52.194;5.676;2022-08-19T05:22:19;20.15;;;10.70;;
40541;SDS011;49288;52.194;5.676;2022-08-19T05:27:36;19.40;;;11.90;;
40541;SDS011;49288;52.194;5.676;2022-08-19T05:32:39;25.75;;;13.10;;
40541;SDS011;49288;52.194;5.676;2022-08-19T05:37:42;15.75;;;10.75;;
40541;SDS011;49288;52.194;5.676;2022-08-19T05:42:45;18.98;;;11.70;;
40541;SDS011;49288;52.194;5.676;2022-08-19T05:47:56;17.42;;;11.60;;
40541;SDS011;49288;52.194;5.676;2022-08-19T05:53:00;19.67;;;10.70;;
40541;SDS011;49288;52.194;5.676;2022-08-19T05:58:03;18.77;;;11.95;;
40541;SDS011;49288;52.194;5.676;2022-08-19T06:03:06;26.30;;;15.35;;
40541;SDS011;49288;52.194;5.676;2022-08-19T06:08:14;33.25;;;18.10;;
40541;SDS011;49288;52.194;5.676;2022-08-19T06:13:16;45.90;;;19.35;;
40541;SDS011;49288;52.194;5.676;2022-08-19T06:18:21;28.40;;;17.75;;
40541;SDS011;49288;52.194;5.676;2022-08-19T06:23:23;48.28;;;24.80;;
40541;SDS011;49288;52.194;5.676;2022-08-19T06:28:27;61.47;;;27.03;;
40541;SDS011;49288;52.194;5.676;2022-08-19T06:33:30;55.40;;;26.58;;
40541;SDS011;49288;52.194;5.676;2022-08-19T06:38:33;55.67;;;25.70;;
40541;SDS011;49288;52.194;5.676;2022-08-19T06:43:35;61.88;;;28.35;;
40541;SDS011;49288;52.194;5.676;2022-08-19T06:48:43;66.07;;;29.92;;
40541;SDS011;49288;52.194;5.676;2022-08-19T06:53:47;68.60;;;32.05;;
40541;SDS011;49288;52.194;5.676;2022-08-19T06:58:56;86.53;;;33.92;;
40541;SDS011;49288;52.194;5.676;2022-08-19T07:03:59;123.70;;;44.90;;
40541;SDS011;49288;52.194;5.676;2022-08-19T07:09:04;135.10;;;46.67;;
40541;SDS011;49288;52.194;5.676;2022-08-19T07:14:08;125.80;;;43.25;;
40541;SDS011;49288;52.194;5.676;2022-08-19T07:19:21;117.50;;;42.60;;
40541;SDS011;49288;52.194;5.676;2022-08-19T07:24:25;107.40;;;43.25;;
40541;SDS011;49288;52.194;5.676;2022-08-19T07:29:35;87.55;;;38.38;;
40541;SDS011;49288;52.194;5.676;2022-08-19T07:34:40;110.63;;;45.05;;
40541;SDS011;49288;52.194;5.676;2022-08-19T07:39:44;105.07;;;45.57;;
40541;SDS011;49288;52.194;5.676;2022-08-19T07:44:46;98.03;;;45.90;;
40541;SDS011;49288;52.194;5.676;2022-08-19T07:49:51;103.07;;;46.50;;
40541;SDS011;49288;52.194;5.676;2022-08-19T07:54:55;102.32;;;49.28;;
40541;SDS011;49288;52.194;5.676;2022-08-19T07:59:59;92.13;;;44.00;;
40541;SDS011;49288;52.194;5.676;2022-08-19T08:05:03;104.00;;;49.15;;
40541;SDS011;49288;52.194;5.676;2022-08-19T08:10:24;96.78;;;47.00;;
40541;SDS011;49288;52.194;5.676;2022-08-19T08:15:27;100.70;;;47.50;;
40541;SDS011;49288;52.194;5.676;2022-08-19T08:20:30;115.20;;;52.80;;
40541;SDS011;49288;52.194;5.676;2022-08-19T08:25:33;112.45;;;50.83;;
40541;SDS011;49288;52.194;5.676;2022-08-19T08:30:38;104.95;;;51.13;;
40541;SDS011;49288;52.194;5.676;2022-08-19T08:35:46;82.55;;;37.90;;
40541;SDS011;49288;52.194;5.676;2022-08-19T08:41:00;74.78;;;38.03;;
40541;SDS011;49288;52.194;5.676;2022-08-19T08:46:10;64.78;;;31.23;;
40541;SDS011;49288;52.194;5.676;2022-08-19T08:51:35;68.47;;;33.50;;
40541;SDS011;49288;52.194;5.676;2022-08-19T08:56:46;66.35;;;31.80;;
40541;SDS011;49288;52.194;5.676;2022-08-19T09:01:52;47.58;;;24.60;;
40541;SDS011;49288;52.194;5.676;2022-08-19T09:17:17;50.25;;;27.15;;
40541;SDS011;49288;52.194;5.676;2022-08-19T09:22:32;55.63;;;27.35;;
40541;SDS011;49288;52.194;5.676;2022-08-19T09:27:36;40.25;;;22.38;;
40541;SDS011;49288;52.194;5.676;2022-08-19T09:32:55;42.65;;;22.80;;
40541;SDS011;49288;52.194;5.676;2022-08-19T09:37:58;46.40;;;25.58;;
40541;SDS011;49288;52.194;5.676;2022-08-19T09:43:01;47.53;;;24.38;;
40541;SDS011;49288;52.194;5.676;2022-08-19T09:48:12;41.33;;;23.13;;
40541;SDS011;49288;52.194;5.676;2022-08-19T09:53:20;34.80;;;20.05;;
40541;SDS011;49288;52.194;5.676;2022-08-19T09:58:26;39.75;;;21.75;;
40541;SDS011;49288;52.194;5.676;2022-08-19T10:03:30;39.60;;;21.20;;
40541;SDS011;49288;52.194;5.676;2022-08-19T10:08:35;37.15;;;20.58;;
40541;SDS011;49288;52.194;5.676;2022-08-19T10:13:38;35.13;;;21.33;;
40541;SDS011;49288;52.194;5.676;2022-08-19T10:18:41;33.88;;;19.77;;
40541;SDS011;49288;52.194;5.676;2022-08-19T10:23:51;33.00;;;17.33;;
40541;SDS011;49288;52.194;5.676;2022-08-19T10:28:56;32.20;;;19.05;;
40541;SDS011;49288;52.194;5.676;2022-08-19T10:34:00;36.25;;;20.50;;
40541;SDS011;49288;52.194;5.676;2022-08-19T10:39:04;31.13;;;18.20;;
40541;SDS011;49288;52.194;5.676;2022-08-19T10:44:10;33.35;;;17.83;;
40541;SDS011;49288;52.194;5.676;2022-08-19T10:49:15;33.75;;;17.52;;
40541;SDS011;49288;52.194;5.676;2022-08-19T10:54:18;33.10;;;19.95;;
40541;SDS011;49288;52.194;5.676;2022-08-19T10:59:32;33.58;;;18.00;;
40541;SDS011;49288;52.194;5.676;2022-08-19T11:04:37;21.80;;;13.20;;
40541;SDS011;49288;52.194;5.676;2022-08-19T11:09:43;27.02;;;15.10;;
40541;SDS011;49288;52.194;5.676;2022-08-19T11:14:48;32.35;;;17.38;;
40541;SDS011;49288;52.194;5.676;2022-08-19T11:19:51;30.73;;;15.98;;
40541;SDS011;49288;52.194;5.676;2022-08-19T11:24:54;23.92;;;12.88;;
40541;SDS011;49288;52.194;5.676;2022-08-19T11:29:57;24.23;;;13.02;;
40541;SDS011;49288;52.194;5.676;2022-08-19T11:35:00;24.80;;;15.00;;
40541;SDS011;49288;52.194;5.676;2022-08-19T11:40:03;24.70;;;15.13;;
40541;SDS011;49288;52.194;5.676;2022-08-19T11:45:07;29.95;;;16.73;;
40541;SDS011;49288;52.194;5.676;2022-08-19T11:50:10;31.75;;;18.63;;
40541;SDS011;49288;52.194;5.676;2022-08-19T11:55:13;24.75;;;13.82;;
40541;SDS011;49288;52.194;5.676;2022-08-19T12:00:16;28.02;;;18.00;;
40541;SDS011;49288;52.194;5.676;2022-08-19T12:05:18;33.47;;;19.92;;
40541;SDS011;49288;52.194;5.676;2022-08-19T12:10:21;30.30;;;18.48;;
40541;SDS011;49288;52.194;5.676;2022-08-19T12:15:27;25.48;;;16.65;;
40541;SDS011;49288;52.194;5.676;2022-08-19T12:20:38;29.60;;;16.05;;
40541;SDS011;49288;52.194;5.676;2022-08-19T12:25:43;30.40;;;19.17;;
40541;SDS011;49288;52.194;5.676;2022-08-19T12:30:51;26.92;;;16.42;;
40541;SDS011;49288;52.194;5.676;2022-08-19T12:35:55;26.48;;;16.15;;
40541;SDS011;49288;52.194;5.676;2022-08-19T12:41:03;42.03;;;23.08;;
40541;SDS011;49288;52.194;5.676;2022-08-19T12:46:09;24.05;;;16.23;;
40541;SDS011;49288;52.194;5.676;2022-08-19T12:51:16;35.05;;;20.95;;
40541;SDS011;49288;52.194;5.676;2022-08-19T12:56:22;28.50;;;17.30;;
40541;SDS011;49288;52.194;5.676;2022-08-19T13:01:24;35.28;;;21.50;;
40541;SDS011;49288;52.194;5.676;2022-08-19T13:06:27;44.10;;;26.10;;
40541;SDS011;49288;52.194;5.676;2022-08-19T13:11:33;34.00;;;20.25;;
40541;SDS011;49288;52.194;5.676;2022-08-19T13:16:37;38.38;;;24.55;;
40541;SDS011;49288;52.194;5.676;2022-08-19T13:21:42;50.65;;;27.50;;
40541;SDS011;49288;52.194;5.676;2022-08-19T13:26:45;35.50;;;22.35;;
40541;SDS011;49288;52.194;5.676;2022-08-19T13:31:47;38.45;;;19.45;;
40541;SDS011;49288;52.194;5.676;2022-08-19T13:37:08;35.80;;;21.35;;
40541;SDS011;49288;52.194;5.676;2022-08-19T13:42:11;36.78;;;19.02;;
40541;SDS011;49288;52.194;5.676;2022-08-19T13:47:34;37.38;;;20.90;;
40541;SDS011;49288;52.194;5.676;2022-08-19T13:52:38;30.02;;;19.75;;
40541;SDS011;49288;52.194;5.676;2022-08-19T13:57:41;35.67;;;18.90;;
40541;SDS011;49288;52.194;5.676;2022-08-19T14:02:45;30.02;;;19.02;;
40541;SDS011;49288;52.194;5.676;2022-08-19T14:07:48;26.25;;;17.33;;
40541;SDS011;49288;52.194;5.676;2022-08-19T14:12:52;28.45;;;16.55;;
40541;SDS011;49288;52.194;5.676;2022-08-19T14:17:57;28.48;;;18.95;;
40541;SDS011;49288;52.194;5.676;2022-08-19T14:23:00;33.65;;;19.38;;
40541;SDS011;49288;52.194;5.676;2022-08-19T14:28:04;25.42;;;17.17;;
40541;SDS011;49288;52.194;5.676;2022-08-19T14:33:06;26.88;;;17.15;;
40541;SDS011;49288;52.194;5.676;2022-08-19T14:38:14;33.80;;;20.50;;
40541;SDS011;49288;52.194;5.676;2022-08-19T14:43:18;33.33;;;21.30;;
40541;SDS011;49288;52.194;5.676;2022-08-19T14:48:21;43.15;;;25.95;;
40541;SDS011;49288;52.194;5.676;2022-08-19T14:53:30;39.30;;;23.05;;
40541;SDS011;49288;52.194;5.676;2022-08-19T14:58:32;40.27;;;23.70;;
40541;SDS011;49288;52.194;5.676;2022-08-19T15:03:39;44.40;;;24.73;;
40541;SDS011;49288;52.194;5.676;2022-08-19T15:08:43;40.80;;;24.08;;
40541;SDS011;49288;52.194;5.676;2022-08-19T15:13:46;43.50;;;23.60;;
40541;SDS011;49288;52.194;5.676;2022-08-19T15:18:50;35.03;;;22.70;;
40541;SDS011;49288;52.194;5.676;2022-08-19T15:23:56;30.65;;;19.20;;
40541;SDS011;49288;52.194;5.676;2022-08-19T15:29:01;30.05;;;18.40;;
40541;SDS011;49288;52.194;5.676;2022-08-19T15:34:04;28.10;;;18.90;;
40541;SDS011;49288;52.194;5.676;2022-08-19T15:39:08;27.00;;;17.25;;
40541;SDS011;49288;52.194;5.676;2022-08-19T15:44:12;25.92;;;17.08;;
40541;SDS011;49288;52.194;5.676;2022-08-19T15:49:19;24.80;;;16.75;;
40541;SDS011;49288;52.194;5.676;2022-08-19T15:54:22;25.97;;;15.17;;
40541;SDS011;49288;52.194;5.676;2022-08-19T15:59:25;25.48;;;16.63;;
40541;SDS011;49288;52.194;5.676;2022-08-19T16:04:50;26.75;;;15.40;;
40541;SDS011;49288;52.194;5.676;2022-08-19T16:10:12;27.63;;;16.25;;
40541;SDS011;49288;52.194;5.676;2022-08-19T16:15:29;29.88;;;16.13;;
40541;SDS011;49288;52.194;5.676;2022-08-19T16:20:31;25.98;;;14.60;;
40541;SDS011;49288;52.194;5.676;2022-08-19T16:25:36;32.22;;;15.32;;
40541;SDS011;49288;52.194;5.676;2022-08-19T16:35:44;23.83;;;13.93;;
40541;SDS011;49288;52.194;5.676;2022-08-19T16:41:01;17.50;;;12.77;;
40541;SDS011;49288;52.194;5.676;2022-08-19T16:46:03;15.80;;;12.67;;
40541;SDS011;49288;52.194;5.676;2022-08-19T16:51:06;17.10;;;11.63;;
40541;SDS011;49288;52.194;5.676;2022-08-19T16:56:10;17.23;;;11.60;;
40541;SDS011;49288;52.194;5.676;2022-08-19T17:01:32;15.98;;;10.05;;
40541;SDS011;49288;52.194;5.676;2022-08-19T17:06:35;17.33;;;9.60;;
40541;SDS011;49288;52.194;5.676;2022-08-19T17:11:40;12.98;;;9.38;;
40541;SDS011;49288;52.194;5.676;2022-08-19T17:16:43;19.90;;;11.53;;
40541;SDS011;49288;52.194;5.676;2022-08-19T17:21:46;14.43;;;9.97;;
40541;SDS011;49288;52.194;5.676;2022-08-19T17:26:49;20.80;;;12.60;;
40541;SDS011;49288;52.194;5.676;2022-08-19T17:31:53;16.58;;;10.10;;
40541;SDS011;49288;52.194;5.676;2022-08-19T17:36:56;19.67;;;12.20;;
40541;SDS011;49288;52.194;5.676;2022-08-19T17:42:00;20.42;;;12.32;;
40541;SDS011;49288;52.194;5.676;2022-08-19T17:47:04;18.23;;;11.50;;
40541;SDS011;49288;52.194;5.676;2022-08-19T17:52:06;18.02;;;11.00;;
40541;SDS011;49288;52.194;5.676;2022-08-19T17:57:11;22.77;;;12.80;;
40541;SDS011;49288;52.194;5.676;2022-08-19T18:02:15;20.45;;;11.82;;
40541;SDS011;49288;52.194;5.676;2022-08-19T18:07:22;19.13;;;11.05;;
40541;SDS011;49288;52.194;5.676;2022-08-19T18:12:25;18.80;;;11.20;;
40541;SDS011;49288;52.194;5.676;2022-08-19T18:17:28;21.65;;;11.80;;
40541;SDS011;49288;52.194;5.676;2022-08-19T18:22:32;19.83;;;8.98;;
40541;SDS011;49288;52.194;5.676;2022-08-19T18:27:38;18.75;;;9.65;;
40541;SDS011;49288;52.194;5.676;2022-08-19T18:32:43;18.15;;;10.25;;
40541;SDS011;49288;52.194;5.676;2022-08-19T18:37:48;21.02;;;9.38;;
40541;SDS011;49288;52.194;5.676;2022-08-19T18:42:51;19.48;;;10.40;;
40541;SDS011;49288;52.194;5.676;2022-08-19T18:48:12;21.85;;;10.73;;
40541;SDS011;49288;52.194;5.676;2022-08-19T18:53:34;18.52;;;9.10;;
40541;SDS011;49288;52.194;5.676;2022-08-19T18:58:39;18.65;;;9.27;;
40541;SDS011;49288;52.194;5.676;2022-08-19T19:03:43;17.50;;;10.80;;
40541;SDS011;49288;52.194;5.676;2022-08-19T19:08:54;18.58;;;9.80;;
40541;SDS011;49288;52.194;5.676;2022-08-19T19:13:57;20.33;;;11.17;;
40541;SDS011;49288;52.194;5.676;2022-08-19T19:19:03;22.02;;;11.10;;
40541;SDS011;49288;52.194;5.676;2022-08-19T19:24:08;20.70;;;10.02;;
40541;SDS011;49288;52.194;5.676;2022-08-19T19:29:15;20.45;;;10.68;;
40541;SDS011;49288;52.194;5.676;2022-08-19T19:34:19;13.60;;;8.77;;
40541;SDS011;49288;52.194;5.676;2022-08-19T19:39:31;16.40;;;10.15;;
40541;SDS011;49288;52.194;5.676;2022-08-19T19:44:49;18.30;;;9.00;;
40541;SDS011;49288;52.194;5.676;2022-08-19T19:49:52;16.17;;;8.75;;
40541;SDS011;49288;52.194;5.676;2022-08-19T19:55:16;14.48;;;8.07;;
40541;SDS011;49288;52.194;5.676;2022-08-19T20:00:19;11.83;;;7.13;;
40541;SDS011;49288;52.194;5.676;2022-08-19T20:05:23;13.52;;;6.97;;
40541;SDS011;49288;52.194;5.676;2022-08-19T20:10:25;11.73;;;6.60;;
40541;SDS011;49288;52.194;5.676;2022-08-19T20:15:29;12.15;;;6.35;;
40541;SDS011;49288;52.194;5.676;2022-08-19T20:20:33;11.70;;;6.55;;
40541;SDS011;49288;52.194;5.676;2022-08-19T20:25:36;12.30;;;6.50;;
40541;SDS011;49288;52.194;5.676;2022-08-19T20:30:40;11.93;;;5.95;;
40541;SDS011;49288;52.194;5.676;2022-08-19T20:35:47;8.98;;;5.05;;
40541;SDS011;49288;52.194;5.676;2022-08-19T20:40:50;11.02;;;5.80;;
40541;SDS011;49288;52.194;5.676;2022-08-19T20:45:53;10.70;;;5.72;;
40541;SDS011;49288;52.194;5.676;2022-08-19T20:50:57;9.60;;;5.60;;
40541;SDS011;49288;52.194;5.676;2022-08-19T20:56:00;8.50;;;5.20;;
40541;SDS011;49288;52.194;5.676;2022-08-19T21:01:04;11.63;;;5.80;;
40541;SDS011;49288;52.194;5.676;2022-08-19T21:06:08;11.00;;;5.82;;
40541;SDS011;49288;52.194;5.676;2022-08-19T21:11:14;7.85;;;5.00;;
40541;SDS011;49288;52.194;5.676;2022-08-19T21:16:21;8.27;;;5.50;;
40541;SDS011;49288;52.194;5.676;2022-08-19T21:21:24;9.68;;;5.05;;
40541;SDS011;49288;52.194;5.676;2022-08-19T21:26:27;10.50;;;5.43;;
40541;SDS011;49288;52.194;5.676;2022-08-19T21:31:30;9.30;;;5.03;;
40541;SDS011;49288;52.194;5.676;2022-08-19T21:36:33;11.07;;;6.73;;
40541;SDS011;49288;52.194;5.676;2022-08-19T21:41:36;15.73;;;6.65;;
40541;SDS011;49288;52.194;5.676;2022-08-19T21:46:44;17.88;;;10.13;;
40541;SDS011;49288;52.194;5.676;2022-08-19T21:51:51;10.43;;;6.38;;
40541;SDS011;49288;52.194;5.676;2022-08-19T21:56:54;12.90;;;7.38;;
40541;SDS011;49288;52.194;5.676;2022-08-19T22:01:56;10.95;;;6.15;;
40541;SDS011;49288;52.194;5.676;2022-08-19T22:07:20;11.13;;;7.25;;
40541;SDS011;49288;52.194;5.676;2022-08-19T22:12:24;13.90;;;7.50;;
40541;SDS011;49288;52.194;5.676;2022-08-19T22:17:33;12.68;;;7.22;;
40541;SDS011;49288;52.194;5.676;2022-08-19T22:22:37;15.07;;;8.40;;
40541;SDS011;49288;52.194;5.676;2022-08-19T22:27:41;9.88;;;6.70;;
40541;SDS011;49288;52.194;5.676;2022-08-19T22:32:45;11.98;;;7.82;;
40541;SDS011;49288;52.194;5.676;2022-08-19T22:37:57;11.82;;;7.72;;
40541;SDS011;49288;52.194;5.676;2022-08-19T22:43:11;35.88;;;22.35;;
40541;SDS011;49288;52.194;5.676;2022-08-19T22:48:16;40.78;;;25.90;;
40541;SDS011;49288;52.194;5.676;2022-08-19T22:53:20;47.78;;;30.38;;
40541;SDS011;49288;52.194;5.676;2022-08-19T22:58:23;35.78;;;21.25;;
40541;SDS011;49288;52.194;5.676;2022-08-19T23:03:29;27.70;;;15.40;;
40541;SDS011;49288;52.194;5.676;2022-08-19T23:08:33;19.33;;;12.40;;
40541;SDS011;49288;52.194;5.676;2022-08-19T23:13:39;17.80;;;12.10;;
40541;SDS011;49288;52.194;5.676;2022-08-19T23:23:46;12.65;;;7.80;;
40541;SDS011;49288;52.194;5.676;2022-08-19T23:28:48;16.77;;;9.65;;
40541;SDS011;49288;52.194;5.676;2022-08-19T23:34:10;14.50;;;8.07;;
40541;SDS011;49288;52.194;5.676;2022-08-19T23:39:12;12.80;;;7.63;;
40541;SDS011;49288;52.194;5.676;2022-08-19T23:44:15;13.57;;;7.32;;
40541;SDS011;49288;52.194;5.676;2022-08-19T23:49:19;14.75;;;7.95;;
40541;SDS011;49288;52.194;5.676;2022-08-19T23:54:22;13.45;;;8.68;;
40541;SDS011;49288;52.194;5.676;2022-08-19T23:59:44;12.95;;;7.95;;
